Aviation Digital Data Service (ADDS)

Output produced by TAFs form (1245 UTC 05 October 2015)
found at http://aviationweather.gov/adds/tafs/
KEGE 051127Z 0512/0612 09004KT P6SM SCT090 BKN140 
     FM051500 VRB05KT P6SM VCSH SCT080 BKN120 
     FM052000 35005KT P6SM -SHRA SCT050 BKN070 
     FM060200 19008KT P6SM VCSH SCT050 BKN080 
     TEMPO 0602/0606 -SHRA BKN050 AMD LTD TO CLD VIS AND WIND TIL 051300